createdAt,value
2022-10-19T00:01:13.496Z,84.64
2022-10-19T00:03:41.043Z,84.62
2022-10-19T00:06:32.320Z,85.06
2022-10-19T00:09:04.108Z,84.57
2022-10-19T00:11:32.086Z,84.67
2022-10-19T00:14:00.164Z,84.29
2022-10-19T00:16:32.845Z,84.28
2022-10-19T00:19:02.919Z,84.03
2022-10-19T00:21:30.075Z,84.33
2022-10-19T00:23:57.137Z,83.87
2022-10-19T00:26:24.877Z,83.69
2022-10-19T00:28:57.635Z,83.83
2022-10-19T00:31:25.326Z,83.74
2022-10-19T00:33:53.097Z,83.59
2022-10-19T00:36:23.979Z,83.34
2022-10-19T00:38:51.826Z,83.37
2022-10-19T00:41:19.721Z,83.11
2022-10-19T00:44:08.249Z,82.48
2022-10-19T00:46:38.864Z,82.96
2022-10-19T00:49:18.151Z,83.17
2022-10-19T00:51:50.158Z,82.77
2022-10-19T00:54:18.820Z,82.36
2022-10-19T00:56:49.998Z,82.66
2022-10-19T00:59:20.809Z,82.50
2022-10-19T01:01:49.165Z,82.33
2022-10-19T01:04:16.285Z,82.50
2022-10-19T01:06:43.375Z,82.03
2022-10-19T01:09:10.735Z,81.91
2022-10-19T01:12:02.302Z,82.25
2022-10-19T01:15:00.027Z,82.51
2022-10-19T01:17:54.185Z,82.15
2022-10-19T01:20:52.491Z,82.08
2022-10-19T01:23:34.479Z,82.23
2022-10-19T01:26:07.723Z,82.56
2022-10-19T01:28:59.563Z,81.75
2022-10-19T01:31:49.278Z,82.18
2022-10-19T01:34:40.927Z,81.92
2022-10-19T01:37:27.369Z,82.08
2022-10-19T01:40:01.827Z,81.90
2022-10-19T01:42:30.019Z,81.86
2022-10-19T01:45:36.014Z,81.87
2022-10-19T01:48:28.917Z,82.62
2022-10-19T01:51:13.078Z,81.79
2022-10-19T01:53:46.522Z,81.71
2022-10-19T01:56:15.954Z,82.32
2022-10-19T01:58:45.661Z,82.68
2022-10-19T02:01:16.774Z,82.60
2022-10-19T02:03:49.248Z,82.47
2022-10-19T02:06:16.938Z,82.23
2022-10-19T02:08:49.689Z,82.11
2022-10-19T02:11:17.898Z,82.80
2022-10-19T02:13:48.567Z,82.39
2022-10-19T02:16:24.905Z,82.04
2022-10-19T02:18:54.163Z,82.38
2022-10-19T02:21:21.272Z,82.86
2022-10-19T02:23:49.417Z,83.38
2022-10-19T02:26:19.713Z,82.88
2022-10-19T02:28:47.152Z,82.43
2022-10-19T02:31:14.288Z,82.96
2022-10-19T02:33:41.214Z,82.83
2022-10-19T02:36:08.502Z,82.56
2022-10-19T02:38:35.493Z,83.15
2022-10-19T02:41:23.777Z,82.15
2022-10-19T02:44:03.698Z,82.70
2022-10-19T02:46:38.083Z,82.40
2022-10-19T02:49:08.355Z,83.15
2022-10-19T02:51:36.725Z,83.35
2022-10-19T02:54:05.870Z,83.25
2022-10-19T02:56:34.264Z,83.41
2022-10-19T02:59:02.103Z,83.08
2022-10-19T03:01:29.136Z,83.69
2022-10-19T03:03:56.073Z,83.82
2022-10-19T03:06:23.709Z,82.87
2022-10-19T03:08:51.227Z,82.97
2022-10-19T03:11:18.205Z,83.24
2022-10-19T03:13:45.138Z,83.47
2022-10-19T03:16:13.629Z,83.08
2022-10-19T03:18:40.883Z,83.40
2022-10-19T03:21:11.113Z,82.98
2022-10-19T03:23:39.419Z,83.15
2022-10-19T03:26:09.993Z,83.21
2022-10-19T03:28:39.157Z,83.29
2022-10-19T03:31:06.617Z,83.68
2022-10-19T03:33:33.498Z,84.13
2022-10-19T03:36:21.362Z,84.58
2022-10-19T03:38:51.639Z,84.69
2022-10-19T03:41:20.233Z,84.89
2022-10-19T03:43:47.297Z,85.71
2022-10-19T03:46:14.985Z,85.89
2022-10-19T03:48:42.570Z,86.07
2022-10-19T03:51:12.443Z,86.44
2022-10-19T03:53:40.766Z,86.77
2022-10-19T03:56:13.297Z,86.42
2022-10-19T03:58:41.826Z,86.61
2022-10-19T04:01:11.758Z,86.65
2022-10-19T04:03:38.832Z,86.66
2022-10-19T04:06:12.201Z,86.64
2022-10-19T04:08:39.224Z,86.58
2022-10-19T04:11:14.268Z,86.64
2022-10-19T04:13:41.399Z,87.02
2022-10-19T04:16:10.023Z,87.12
2022-10-19T04:18:36.907Z,86.77
2022-10-19T04:21:05.814Z,87.09
2022-10-19T04:23:35.755Z,87.19
2022-10-19T04:26:05.749Z,87.00
2022-10-19T04:28:34.470Z,86.96
2022-10-19T04:31:06.248Z,87.01
2022-10-19T04:33:34.724Z,86.43
2022-10-19T04:36:07.237Z,85.94
2022-10-19T04:38:35.290Z,86.39
2022-10-19T04:41:14.229Z,86.82
2022-10-19T04:43:41.642Z,86.81
2022-10-19T04:46:11.045Z,86.46
2022-10-19T04:48:39.685Z,86.45
2022-10-19T04:51:07.231Z,86.75
2022-10-19T04:53:35.239Z,86.17
2022-10-19T04:56:05.975Z,86.46
2022-10-19T04:58:33.035Z,86.54
2022-10-19T05:01:00.454Z,86.37
2022-10-19T05:03:27.432Z,86.55
2022-10-19T05:05:54.421Z,86.90
2022-10-19T05:08:21.370Z,86.56
2022-10-19T05:10:48.362Z,86.81
2022-10-19T05:13:15.186Z,86.43
2022-10-19T05:15:42.162Z,86.69
2022-10-19T05:18:09.082Z,86.71
2022-10-19T05:20:36.059Z,86.53
2022-10-19T05:23:06.329Z,86.87
2022-10-19T05:25:34.282Z,86.74
2022-10-19T05:28:01.129Z,87.36
2022-10-19T05:30:28.013Z,87.23
2022-10-19T05:32:54.965Z,87.21
2022-10-19T05:35:22.675Z,87.11
2022-10-19T05:37:54.818Z,87.04
2022-10-19T05:40:21.757Z,87.29
2022-10-19T05:42:48.630Z,87.58
2022-10-19T05:45:15.581Z,87.50
2022-10-19T05:47:42.412Z,87.41
2022-10-19T05:50:09.684Z,87.49
2022-10-19T05:52:36.562Z,87.35
2022-10-19T05:55:03.639Z,87.82
2022-10-19T05:57:32.525Z,87.81
2022-10-19T05:59:59.753Z,87.65
2022-10-19T06:02:26.645Z,88.11
2022-10-19T06:04:53.529Z,87.64
2022-10-19T06:07:20.461Z,87.46
2022-10-19T06:09:47.958Z,87.61
2022-10-19T06:12:16.318Z,87.80
2022-10-19T06:14:43.607Z,87.57
2022-10-19T06:17:10.974Z,87.72
2022-10-19T06:19:38.118Z,87.63
2022-10-19T06:22:05.077Z,87.70
2022-10-19T06:24:31.921Z,87.92
2022-10-19T06:26:58.856Z,87.86
2022-10-19T06:29:25.790Z,88.44
2022-10-19T06:31:54.303Z,88.77
2022-10-19T06:34:21.376Z,88.81
2022-10-19T06:36:48.335Z,88.77
2022-10-19T06:39:15.256Z,89.81
2022-10-19T06:41:42.079Z,89.85
2022-10-19T06:44:18.660Z,89.63
2022-10-19T06:46:45.516Z,89.60
2022-10-19T06:49:14.336Z,90.05
2022-10-19T06:51:41.367Z,90.32
2022-10-19T06:54:08.361Z,89.85
2022-10-19T06:56:35.323Z,90.53
2022-10-19T06:59:02.265Z,91.08
2022-10-19T07:01:29.338Z,91.28
2022-10-19T07:03:56.281Z,91.64
2022-10-19T07:06:24.225Z,92.29
2022-10-19T07:08:52.369Z,92.30
2022-10-19T07:11:22.623Z,93.72
2022-10-19T07:13:50.519Z,93.12
2022-10-19T07:16:21.014Z,93.48
2022-10-19T07:18:53.173Z,93.10
2022-10-19T07:21:23.079Z,94.52
2022-10-19T07:23:50.274Z,94.34
2022-10-19T07:26:21.181Z,94.89
2022-10-19T07:28:49.134Z,94.34
2022-10-19T07:31:18.517Z,95.72
2022-10-19T07:33:45.483Z,95.03
2022-10-19T07:36:13.999Z,95.90
2022-10-19T07:38:41.401Z,95.60
2022-10-19T07:41:12.864Z,96.48
2022-10-19T07:43:41.762Z,96.56
2022-10-19T07:46:12.363Z,96.56
2022-10-19T07:48:39.454Z,95.90
2022-10-19T07:51:08.082Z,95.40
2022-10-19T07:53:35.703Z,95.33
2022-10-19T07:56:07.763Z,95.42
2022-10-19T07:58:36.489Z,95.30
2022-10-19T08:01:05.663Z,95.57
2022-10-19T08:06:21.725Z,95.89
2022-10-19T08:08:49.451Z,95.35
2022-10-19T08:11:32.155Z,95.41
2022-10-19T08:13:59.573Z,95.85
2022-10-19T08:16:39.557Z,96.17
2022-10-19T08:19:08.840Z,96.00
2022-10-19T08:21:37.016Z,95.61
2022-10-19T08:24:04.764Z,96.13
2022-10-19T08:26:34.436Z,96.19
2022-10-19T08:29:20.809Z,95.69
2022-10-19T08:31:49.350Z,96.25
2022-10-19T08:34:16.603Z,96.24
2022-10-19T08:36:44.222Z,96.42
2022-10-19T08:39:14.332Z,95.95
2022-10-19T08:41:41.339Z,96.81
2022-10-19T08:44:26.345Z,96.98
2022-10-19T08:47:09.329Z,97.37
2022-10-19T08:49:37.840Z,97.86
2022-10-19T08:52:11.543Z,97.15
2022-10-19T08:57:37.224Z,97.38
2022-10-19T09:00:26.151Z,97.75
2022-10-19T09:03:20.115Z,97.62
2022-10-19T09:06:20.548Z,97.38
2022-10-19T09:08:52.407Z,96.49
2022-10-19T09:11:26.110Z,97.21
2022-10-19T09:14:05.469Z,96.56
2022-10-19T09:16:34.954Z,97.42
2022-10-19T09:19:03.390Z,96.49
2022-10-19T09:21:46.983Z,95.57
2022-10-19T09:24:39.475Z,95.81
2022-10-19T09:27:16.087Z,95.69
2022-10-19T09:29:46.372Z,95.17
2022-10-19T09:32:24.533Z,94.99
2022-10-19T09:34:54.538Z,95.25
2022-10-19T09:37:26.251Z,95.46
2022-10-19T09:39:55.595Z,95.39
2022-10-19T09:42:33.810Z,94.69
2022-10-19T09:45:11.502Z,94.90
2022-10-19T09:47:40.796Z,94.52
2022-10-19T09:50:25.507Z,94.38
2022-10-19T09:52:57.645Z,94.75
2022-10-19T09:56:05.062Z,94.84
2022-10-19T09:58:33.249Z,95.19
2022-10-19T10:01:02.195Z,95.83
2022-10-19T10:03:43.734Z,96.48
2022-10-19T10:06:15.265Z,96.56
2022-10-19T10:08:48.878Z,97.35
2022-10-19T10:11:24.285Z,97.36
2022-10-19T10:14:07.511Z,98.65
2022-10-19T10:16:37.232Z,97.77
2022-10-19T10:19:11.755Z,97.84
2022-10-19T10:21:55.687Z,98.98
2022-10-19T10:24:25.047Z,98.80
2022-10-19T10:26:59.303Z,100.00
2022-10-19T10:29:32.854Z,100.00
2022-10-19T10:32:13.903Z,100.00
2022-10-19T10:34:51.320Z,99.56
2022-10-19T10:37:26.176Z,98.73
2022-10-19T10:39:56.716Z,99.19
2022-10-19T10:42:37.205Z,99.08
2022-10-19T10:45:05.262Z,98.36
2022-10-19T10:47:32.691Z,98.50
2022-10-19T10:50:03.392Z,97.20
2022-10-19T10:52:31.669Z,96.65
2022-10-19T10:55:11.092Z,95.57
2022-10-19T10:57:44.963Z,95.97
2022-10-19T11:00:19.083Z,95.40
2022-10-19T11:03:21.394Z,94.88
2022-10-19T11:06:00.917Z,91.77
2022-10-19T11:09:16.206Z,92.14
2022-10-19T11:11:47.698Z,90.62
2022-10-19T11:14:43.025Z,88.89
2022-10-19T11:17:22.429Z,87.68
2022-10-19T11:19:52.500Z,88.81
2022-10-19T11:22:27.025Z,88.34
2022-10-19T11:25:17.180Z,88.98
2022-10-19T11:28:05.623Z,89.14
2022-10-19T11:30:42.801Z,89.09
2022-10-19T11:33:39.349Z,88.44
2022-10-19T11:36:36.101Z,88.44
2022-10-19T11:39:42.211Z,88.56
2022-10-19T11:42:19.401Z,88.42
2022-10-19T11:45:10.967Z,87.21
2022-10-19T11:47:53.874Z,86.96
2022-10-19T11:50:44.114Z,86.98
2022-10-19T11:53:27.966Z,85.85
2022-10-19T11:56:10.308Z,83.54
2022-10-19T11:59:03.967Z,83.78
2022-10-19T12:01:46.373Z,84.34
2022-10-19T12:04:39.964Z,82.61
2022-10-19T12:07:09.834Z,84.05
2022-10-19T12:09:45.688Z,85.48
2022-10-19T12:12:39.521Z,82.65
2022-10-19T12:15:12.065Z,84.10
2022-10-19T12:17:44.560Z,84.52
2022-10-19T12:20:27.425Z,84.89
2022-10-19T12:22:55.011Z,85.49
2022-10-19T12:25:22.287Z,85.87
2022-10-19T12:27:50.896Z,86.20
2022-10-19T12:30:22.566Z,86.38
2022-10-19T12:33:06.251Z,86.51
2022-10-19T12:35:58.422Z,87.02
2022-10-19T12:38:42.345Z,86.90
2022-10-19T12:41:31.281Z,86.81
2022-10-19T12:43:58.100Z,87.61
2022-10-19T12:46:25.026Z,87.59
2022-10-19T12:49:28.891Z,87.65
2022-10-19T12:52:01.056Z,87.40
2022-10-19T12:54:35.842Z,87.04
2022-10-19T12:57:22.827Z,87.23
2022-10-19T13:00:04.682Z,87.83
2022-10-19T13:02:35.513Z,87.94
2022-10-19T13:05:03.116Z,87.69
2022-10-19T13:07:34.845Z,87.65
2022-10-19T13:10:06.247Z,87.46
2022-10-19T13:12:45.601Z,88.46
2022-10-19T13:15:34.521Z,87.64
2022-10-19T13:18:02.646Z,87.81
2022-10-19T13:20:29.458Z,87.56
2022-10-19T13:23:05.163Z,87.59
2022-10-19T13:25:39.565Z,88.26
2022-10-19T13:28:06.402Z,87.83
2022-10-19T13:30:38.611Z,86.90
2022-10-19T13:33:25.482Z,86.92
2022-10-19T13:35:59.814Z,86.25
2022-10-19T13:38:30.776Z,85.88
2022-10-19T13:41:07.179Z,86.32
2022-10-19T13:43:37.764Z,86.78
2022-10-19T13:46:35.744Z,85.12
2022-10-19T13:49:27.818Z,85.93
2022-10-19T13:52:12.166Z,85.92
2022-10-19T13:54:54.901Z,86.07
2022-10-19T13:57:50.005Z,86.38
2022-10-19T14:00:25.736Z,86.51
2022-10-19T14:02:52.549Z,86.37
2022-10-19T14:05:46.241Z,86.39
2022-10-19T14:08:25.449Z,86.21
2022-10-19T14:11:01.519Z,86.00
2022-10-19T14:13:29.538Z,85.89
2022-10-19T14:16:00.254Z,86.32
2022-10-19T14:18:35.870Z,86.03
2022-10-19T14:21:06.845Z,86.51
2022-10-19T14:23:39.931Z,87.10
2022-10-19T14:26:12.342Z,86.79
2022-10-19T14:28:41.175Z,86.22
2022-10-19T14:31:19.284Z,85.82
2022-10-19T14:33:50.213Z,86.24
2022-10-19T14:36:20.076Z,86.29
2022-10-19T14:38:49.878Z,85.85
2022-10-19T14:41:41.773Z,85.80
2022-10-19T14:44:36.384Z,85.10
2022-10-19T14:47:17.164Z,85.71
2022-10-19T14:49:44.173Z,85.87
2022-10-19T14:52:18.090Z,85.43
2022-10-19T14:54:48.086Z,84.40
2022-10-19T14:57:20.669Z,85.05
2022-10-19T14:59:51.244Z,84.77
2022-10-19T15:02:27.194Z,84.64
2022-10-19T15:04:56.896Z,84.84
2022-10-19T15:07:44.003Z,84.70
2022-10-19T15:10:24.474Z,84.74
2022-10-19T15:12:57.681Z,84.91
2022-10-19T15:15:33.919Z,84.33
2022-10-19T15:18:00.899Z,84.43
2022-10-19T15:20:27.904Z,84.35
2022-10-19T15:22:56.666Z,83.74
2022-10-19T15:25:58.850Z,83.35
2022-10-19T15:28:41.436Z,83.24
2022-10-19T15:31:25.548Z,83.66
2022-10-19T15:34:01.019Z,83.87
2022-10-19T15:36:30.645Z,83.43
2022-10-19T15:39:24.497Z,82.67
2022-10-19T15:41:56.610Z,83.14
2022-10-19T15:44:40.141Z,83.40
2022-10-19T15:47:19.386Z,83.28
2022-10-19T15:49:51.983Z,83.98
2022-10-19T15:52:18.763Z,84.44
2022-10-19T15:54:50.478Z,85.59
2022-10-19T15:57:38.084Z,86.61
2022-10-19T16:00:13.966Z,86.75
2022-10-19T16:02:41.060Z,87.01
2022-10-19T16:05:08.723Z,86.87
2022-10-19T16:07:38.572Z,86.18
2022-10-19T16:10:06.644Z,86.59
2022-10-19T16:12:33.560Z,86.45
2022-10-19T16:15:00.449Z,86.46
2022-10-19T16:17:27.454Z,86.21
2022-10-19T16:19:54.406Z,86.36
2022-10-19T16:22:21.355Z,86.47
2022-10-19T16:24:48.477Z,86.30
2022-10-19T16:27:16.491Z,85.60
2022-10-19T16:29:44.465Z,85.90
2022-10-19T16:32:11.620Z,86.14
2022-10-19T16:34:38.774Z,85.66
2022-10-19T16:37:07.145Z,85.54
2022-10-19T16:39:34.901Z,85.57
2022-10-19T16:42:01.853Z,84.74
2022-10-19T16:44:29.026Z,84.92
2022-10-19T16:46:57.075Z,84.89
2022-10-19T16:49:24.330Z,85.14
2022-10-19T16:51:54.693Z,84.22
2022-10-19T16:54:24.593Z,84.59
2022-10-19T16:56:51.521Z,84.62
2022-10-19T16:59:19.444Z,84.37
2022-10-19T17:01:47.033Z,84.06
2022-10-19T17:04:18.128Z,84.44
2022-10-19T17:06:45.484Z,84.89
2022-10-19T17:11:59.897Z,84.64
2022-10-19T17:14:26.896Z,84.16
2022-10-19T17:16:53.895Z,84.33
2022-10-19T17:19:20.824Z,84.39
2022-10-19T17:21:49.343Z,83.44
2022-10-19T17:24:21.725Z,83.76
2022-10-19T17:26:52.032Z,83.37
2022-10-19T17:29:20.057Z,83.12
2022-10-19T17:31:47.436Z,83.33
2022-10-19T17:34:14.439Z,83.11
2022-10-19T17:36:44.794Z,83.32
2022-10-19T17:39:18.982Z,83.43
2022-10-19T17:41:47.440Z,83.46
2022-10-19T17:44:15.225Z,83.58
2022-10-19T17:46:42.682Z,83.81
2022-10-19T17:49:13.141Z,84.39
2022-10-19T17:51:45.963Z,84.37
2022-10-19T17:54:14.622Z,84.48
2022-10-19T17:56:45.143Z,84.30
2022-10-19T17:59:16.035Z,84.85
2022-10-19T18:01:43.230Z,84.71
2022-10-19T18:04:10.606Z,85.04
2022-10-19T18:06:38.464Z,85.26
2022-10-19T18:09:10.566Z,85.84
2022-10-19T18:11:45.055Z,86.28
2022-10-19T18:14:15.524Z,86.98
2022-10-19T18:16:45.775Z,87.16
2022-10-19T18:19:14.870Z,87.05
2022-10-19T18:21:46.860Z,87.62
2022-10-19T18:24:19.737Z,88.30
2022-10-19T18:26:50.919Z,88.44
2022-10-19T18:29:24.326Z,88.55
2022-10-19T18:31:52.595Z,89.30
2022-10-19T18:34:26.357Z,88.42
2022-10-19T18:36:54.543Z,89.28
2022-10-19T18:39:22.271Z,90.16
2022-10-19T18:41:54.683Z,89.88
2022-10-19T18:44:26.351Z,90.93
2022-10-19T18:46:54.824Z,91.44
2022-10-19T18:49:21.807Z,92.29
2022-10-19T18:51:54.020Z,92.76
2022-10-19T18:54:22.801Z,93.21
2022-10-19T18:56:49.762Z,93.40
2022-10-19T18:59:16.933Z,92.71
2022-10-19T19:01:44.117Z,94.95
2022-10-19T19:04:11.308Z,95.98
2022-10-19T19:06:38.733Z,96.25
2022-10-19T19:09:08.451Z,95.17
2022-10-19T19:11:37.574Z,95.17
2022-10-19T19:14:17.306Z,96.29
2022-10-19T19:16:45.777Z,97.04
2022-10-19T19:19:14.661Z,96.49
2022-10-19T19:21:44.628Z,98.14
2022-10-19T19:24:14.755Z,97.83
2022-10-19T19:26:43.657Z,97.88
2022-10-19T19:29:10.685Z,97.62
2022-10-19T19:31:39.370Z,97.87
2022-10-19T19:34:07.839Z,98.24
2022-10-19T19:36:35.556Z,96.82
2022-10-19T19:39:02.694Z,97.69
2022-10-19T19:41:31.298Z,97.40
2022-10-19T19:43:59.063Z,96.71
2022-10-19T19:46:26.521Z,97.84
2022-10-19T19:49:02.351Z,96.72
2022-10-19T19:51:31.249Z,95.90
2022-10-19T19:53:58.318Z,95.38
2022-10-19T19:56:25.501Z,94.81
2022-10-19T19:58:57.556Z,95.17
2022-10-19T20:01:25.406Z,95.03
2022-10-19T20:03:52.548Z,95.21
2022-10-19T20:06:23.543Z,94.84
2022-10-19T20:08:53.326Z,95.02
2022-10-19T20:11:20.408Z,95.05
2022-10-19T20:13:47.257Z,95.19
2022-10-19T20:16:17.027Z,95.02
2022-10-19T20:18:45.706Z,95.10
2022-10-19T20:21:13.295Z,94.91
2022-10-19T20:23:40.538Z,94.82
2022-10-19T20:26:15.027Z,93.60
2022-10-19T20:28:41.976Z,93.28
2022-10-19T20:31:12.244Z,92.18
2022-10-19T20:33:40.552Z,91.77
2022-10-19T20:36:12.715Z,89.75
2022-10-19T20:38:40.944Z,90.40
2022-10-19T20:41:09.655Z,89.68
2022-10-19T20:43:37.904Z,89.69
2022-10-19T20:46:06.938Z,89.84
2022-10-19T20:48:34.555Z,88.72
2022-10-19T20:51:13.391Z,88.19
2022-10-19T20:53:40.627Z,88.49
2022-10-19T20:56:09.505Z,88.40
2022-10-19T20:58:40.253Z,87.84
2022-10-19T21:01:15.686Z,87.50
2022-10-19T21:03:50.947Z,87.23
2022-10-19T21:06:18.025Z,87.09
2022-10-19T21:08:45.567Z,86.02
2022-10-19T21:11:19.455Z,85.13
2022-10-19T21:13:48.092Z,86.41
2022-10-19T21:16:18.248Z,85.69
2022-10-19T21:18:47.134Z,86.26
2022-10-19T21:21:20.377Z,85.68
2022-10-19T21:23:50.198Z,85.03
2022-10-19T21:26:17.852Z,85.07
2022-10-19T21:28:50.235Z,84.30
2022-10-19T21:31:18.258Z,84.31
2022-10-19T21:33:45.556Z,84.24
2022-10-19T21:36:14.297Z,83.39
2022-10-19T21:38:42.445Z,84.09
2022-10-19T21:41:13.761Z,83.27
2022-10-19T21:43:41.048Z,83.29
2022-10-19T21:46:11.047Z,83.39
2022-10-19T21:48:39.100Z,83.11
2022-10-19T21:51:32.154Z,83.27
2022-10-19T21:54:00.354Z,83.28
2022-10-19T21:56:29.055Z,83.06
2022-10-19T21:58:56.359Z,83.31
2022-10-19T22:01:26.355Z,83.76
2022-10-19T22:03:58.106Z,81.92
2022-10-19T22:06:26.616Z,82.56
2022-10-19T22:08:54.135Z,82.52
2022-10-19T22:11:21.945Z,83.09
2022-10-19T22:13:48.990Z,82.42
2022-10-19T22:16:18.979Z,83.32
2022-10-19T22:18:47.047Z,82.03
2022-10-19T22:21:16.915Z,82.24
2022-10-19T22:23:45.064Z,82.48
2022-10-19T22:26:16.645Z,82.26
2022-10-19T22:28:44.126Z,81.18
2022-10-19T22:31:11.804Z,81.32
2022-10-19T22:33:39.259Z,81.32
2022-10-19T22:36:08.490Z,81.38
2022-10-19T22:38:35.528Z,81.31
2022-10-19T22:41:02.375Z,81.65
2022-10-19T22:43:29.237Z,81.99
2022-10-19T22:45:56.256Z,81.83
2022-10-19T22:48:23.411Z,80.87
2022-10-19T22:50:54.217Z,80.89
2022-10-19T22:53:22.490Z,80.90
2022-10-19T22:55:49.978Z,80.95
2022-10-19T22:58:19.343Z,80.98
2022-10-19T23:01:01.966Z,80.44
2022-10-19T23:03:28.973Z,81.43
2022-10-19T23:05:56.021Z,80.94
2022-10-19T23:08:23.054Z,81.43
2022-10-19T23:10:50.002Z,81.64
2022-10-19T23:13:17.254Z,81.29
2022-10-19T23:15:45.072Z,80.76
2022-10-19T23:18:13.107Z,80.86
2022-10-19T23:20:40.097Z,80.47
2022-10-19T23:23:07.369Z,80.06
2022-10-19T23:25:34.354Z,80.15
2022-10-19T23:28:01.274Z,79.25
2022-10-19T23:30:28.247Z,79.56
2022-10-19T23:32:55.098Z,78.98
2022-10-19T23:35:27.890Z,78.84
2022-10-19T23:37:58.820Z,78.00
2022-10-19T23:40:25.720Z,78.72
2022-10-19T23:42:52.568Z,78.52
2022-10-19T23:45:19.480Z,78.68
2022-10-19T23:47:46.334Z,77.79
2022-10-19T23:50:13.153Z,78.97
2022-10-19T23:52:40.177Z,78.43
2022-10-19T23:55:07.881Z,77.75
2022-10-19T23:57:35.556Z,77.97
